sensor_id;sensor_type;location;lat;lon;timestamp;P1;durP1;ratioP1;P2;durP2;ratioP2
26562;SDS011;14217;50.986;5.826;2022-12-18T00:04:56;4.32;;;3.92;;
26562;SDS011;14217;50.986;5.826;2022-12-18T00:09:58;4.93;;;3.60;;
26562;SDS011;14217;50.986;5.826;2022-12-18T00:15:00;4.47;;;3.97;;
26562;SDS011;14217;50.986;5.826;2022-12-18T00:20:02;5.68;;;3.33;;
26562;SDS011;14217;50.986;5.826;2022-12-18T00:25:05;3.83;;;3.30;;
26562;SDS011;14217;50.986;5.826;2022-12-18T00:30:07;4.18;;;3.20;;
26562;SDS011;14217;50.986;5.826;2022-12-18T00:35:09;5.60;;;3.90;;
26562;SDS011;14217;50.986;5.826;2022-12-18T00:40:11;4.28;;;3.53;;
26562;SDS011;14217;50.986;5.826;2022-12-18T00:45:13;4.10;;;3.78;;
26562;SDS011;14217;50.986;5.826;2022-12-18T00:50:15;5.75;;;4.53;;
26562;SDS011;14217;50.986;5.826;2022-12-18T00:55:17;5.10;;;3.35;;
26562;SDS011;14217;50.986;5.826;2022-12-18T01:00:19;6.32;;;4.32;;
26562;SDS011;14217;50.986;5.826;2022-12-18T01:05:22;3.75;;;3.40;;
26562;SDS011;14217;50.986;5.826;2022-12-18T01:10:24;4.47;;;3.45;;
26562;SDS011;14217;50.986;5.826;2022-12-18T01:15:27;3.80;;;3.40;;
26562;SDS011;14217;50.986;5.826;2022-12-18T01:20:29;4.63;;;3.17;;
26562;SDS011;14217;50.986;5.826;2022-12-18T01:25:31;4.82;;;3.80;;
26562;SDS011;14217;50.986;5.826;2022-12-18T01:30:33;3.40;;;3.10;;
26562;SDS011;14217;50.986;5.826;2022-12-18T01:35:39;4.82;;;3.30;;
26562;SDS011;14217;50.986;5.826;2022-12-18T01:40:43;4.18;;;3.25;;
26562;SDS011;14217;50.986;5.826;2022-12-18T01:45:45;3.72;;;2.97;;
26562;SDS011;14217;50.986;5.826;2022-12-18T01:50:47;4.65;;;2.38;;
26562;SDS011;14217;50.986;5.826;2022-12-18T01:55:52;14.95;;;3.38;;
26562;SDS011;14217;50.986;5.826;2022-12-18T02:00:56;2.47;;;2.28;;
26562;SDS011;14217;50.986;5.826;2022-12-18T02:16:41;3.50;;;3.20;;
26562;SDS011;14217;50.986;5.826;2022-12-18T02:21:56;3.13;;;2.55;;
26562;SDS011;14217;50.986;5.826;2022-12-18T02:27:08;6.03;;;3.25;;
26562;SDS011;14217;50.986;5.826;2022-12-18T02:32:17;3.85;;;2.95;;
26562;SDS011;14217;50.986;5.826;2022-12-18T02:37:24;4.03;;;3.72;;
26562;SDS011;14217;50.986;5.826;2022-12-18T02:42:29;3.03;;;2.72;;
26562;SDS011;14217;50.986;5.826;2022-12-18T02:47:32;3.95;;;2.78;;
26562;SDS011;14217;50.986;5.826;2022-12-18T02:52:39;3.47;;;2.92;;
26562;SDS011;14217;50.986;5.826;2022-12-18T03:03:35;2.47;;;2.25;;
26562;SDS011;14217;50.986;5.826;2022-12-18T03:08:43;2.45;;;2.08;;
26562;SDS011;14217;50.986;5.826;2022-12-18T03:13:54;4.30;;;2.72;;
26562;SDS011;14217;50.986;5.826;2022-12-18T03:19:00;3.13;;;2.00;;
26562;SDS011;14217;50.986;5.826;2022-12-18T03:24:06;2.47;;;2.13;;
26562;SDS011;14217;50.986;5.826;2022-12-18T03:34:40;2.15;;;2.00;;
26562;SDS011;14217;50.986;5.826;2022-12-18T03:39:43;2.38;;;1.88;;
26562;SDS011;14217;50.986;5.826;2022-12-18T03:50:36;2.75;;;2.45;;
26562;SDS011;14217;50.986;5.826;2022-12-18T03:55:44;2.30;;;1.80;;
26562;SDS011;14217;50.986;5.826;2022-12-18T04:00:47;2.47;;;2.25;;
26562;SDS011;14217;50.986;5.826;2022-12-18T04:05:51;2.45;;;1.95;;
26562;SDS011;14217;50.986;5.826;2022-12-18T04:10:55;3.03;;;2.42;;
26562;SDS011;14217;50.986;5.826;2022-12-18T04:15:57;2.88;;;1.80;;
26562;SDS011;14217;50.986;5.826;2022-12-18T04:21:00;1.70;;;1.60;;
26562;SDS011;14217;50.986;5.826;2022-12-18T04:26:02;2.30;;;2.10;;
26562;SDS011;14217;50.986;5.826;2022-12-18T04:31:04;2.05;;;1.73;;
26562;SDS011;14217;50.986;5.826;2022-12-18T04:36:07;2.33;;;1.85;;
26562;SDS011;14217;50.986;5.826;2022-12-18T04:41:09;2.95;;;1.65;;
26562;SDS011;14217;50.986;5.826;2022-12-18T04:46:11;2.50;;;2.10;;
26562;SDS011;14217;50.986;5.826;2022-12-18T04:51:13;3.88;;;2.08;;
26562;SDS011;14217;50.986;5.826;2022-12-18T04:56:15;2.65;;;1.73;;
26562;SDS011;14217;50.986;5.826;2022-12-18T05:01:17;1.90;;;1.80;;
26562;SDS011;14217;50.986;5.826;2022-12-18T05:06:20;1.98;;;1.60;;
26562;SDS011;14217;50.986;5.826;2022-12-18T05:11:21;2.42;;;1.83;;
26562;SDS011;14217;50.986;5.826;2022-12-18T05:16:23;1.40;;;1.00;;
26562;SDS011;14217;50.986;5.826;2022-12-18T05:21:25;2.28;;;1.70;;
26562;SDS011;14217;50.986;5.826;2022-12-18T05:26:28;1.52;;;1.42;;
26562;SDS011;14217;50.986;5.826;2022-12-18T05:31:30;1.95;;;1.20;;
26562;SDS011;14217;50.986;5.826;2022-12-18T05:36:39;1.83;;;1.48;;
26562;SDS011;14217;50.986;5.826;2022-12-18T05:41:41;2.05;;;1.75;;
26562;SDS011;14217;50.986;5.826;2022-12-18T05:46:43;1.60;;;1.50;;
26562;SDS011;14217;50.986;5.826;2022-12-18T05:51:45;1.40;;;1.08;;
26562;SDS011;14217;50.986;5.826;2022-12-18T05:56:47;2.33;;;1.60;;
26562;SDS011;14217;50.986;5.826;2022-12-18T06:01:49;2.38;;;1.80;;
26562;SDS011;14217;50.986;5.826;2022-12-18T06:06:51;1.48;;;1.13;;
26562;SDS011;14217;50.986;5.826;2022-12-18T06:11:53;1.73;;;1.38;;
26562;SDS011;14217;50.986;5.826;2022-12-18T06:16:55;1.73;;;1.63;;
26562;SDS011;14217;50.986;5.826;2022-12-18T06:21:57;1.83;;;1.30;;
26562;SDS011;14217;50.986;5.826;2022-12-18T06:27:00;2.00;;;1.45;;
26562;SDS011;14217;50.986;5.826;2022-12-18T06:32:02;1.98;;;1.65;;
26562;SDS011;14217;50.986;5.826;2022-12-18T06:37:04;2.35;;;1.38;;
26562;SDS011;14217;50.986;5.826;2022-12-18T06:42:06;1.98;;;1.38;;
26562;SDS011;14217;50.986;5.826;2022-12-18T06:47:08;2.00;;;1.20;;
26562;SDS011;14217;50.986;5.826;2022-12-18T06:52:10;1.67;;;1.55;;
26562;SDS011;14217;50.986;5.826;2022-12-18T06:57:12;1.50;;;1.08;;
26562;SDS011;14217;50.986;5.826;2022-12-18T07:02:13;2.05;;;1.35;;
26562;SDS011;14217;50.986;5.826;2022-12-18T07:07:16;0.98;;;0.80;;
26562;SDS011;14217;50.986;5.826;2022-12-18T07:12:18;1.27;;;1.05;;
26562;SDS011;14217;50.986;5.826;2022-12-18T07:17:20;1.73;;;1.25;;
26562;SDS011;14217;50.986;5.826;2022-12-18T07:22:22;0.95;;;0.80;;
26562;SDS011;14217;50.986;5.826;2022-12-18T07:27:24;1.40;;;1.30;;
26562;SDS011;14217;50.986;5.826;2022-12-18T07:32:26;2.33;;;1.30;;
26562;SDS011;14217;50.986;5.826;2022-12-18T07:37:28;1.45;;;1.30;;
26562;SDS011;14217;50.986;5.826;2022-12-18T07:42:30;2.35;;;1.33;;
26562;SDS011;14217;50.986;5.826;2022-12-18T07:47:36;1.20;;;1.10;;
26562;SDS011;14217;50.986;5.826;2022-12-18T07:52:38;2.40;;;1.20;;
26562;SDS011;14217;50.986;5.826;2022-12-18T07:57:40;2.75;;;1.63;;
26562;SDS011;14217;50.986;5.826;2022-12-18T08:02:52;1.00;;;1.00;;
26562;SDS011;14217;50.986;5.826;2022-12-18T08:07:54;1.45;;;1.15;;
26562;SDS011;14217;50.986;5.826;2022-12-18T08:12:57;1.38;;;0.80;;
26562;SDS011;14217;50.986;5.826;2022-12-18T08:18:05;1.30;;;1.20;;
26562;SDS011;14217;50.986;5.826;2022-12-18T08:23:12;1.30;;;1.13;;
26562;SDS011;14217;50.986;5.826;2022-12-18T08:28:14;1.10;;;0.95;;
26562;SDS011;14217;50.986;5.826;2022-12-18T08:33:17;1.63;;;1.38;;
26562;SDS011;14217;50.986;5.826;2022-12-18T08:38:19;1.27;;;0.93;;
26562;SDS011;14217;50.986;5.826;2022-12-18T08:43:21;1.65;;;1.23;;
26562;SDS011;14217;50.986;5.826;2022-12-18T08:48:42;2.25;;;1.55;;
26562;SDS011;14217;50.986;5.826;2022-12-18T08:53:44;2.63;;;1.20;;
26562;SDS011;14217;50.986;5.826;2022-12-18T08:58:46;1.83;;;1.45;;
26562;SDS011;14217;50.986;5.826;2022-12-18T09:03:49;1.77;;;1.67;;
26562;SDS011;14217;50.986;5.826;2022-12-18T09:08:51;1.80;;;1.27;;
26562;SDS011;14217;50.986;5.826;2022-12-18T09:13:54;1.33;;;1.15;;
26562;SDS011;14217;50.986;5.826;2022-12-18T09:18:57;1.88;;;1.48;;
26562;SDS011;14217;50.986;5.826;2022-12-18T09:24:01;2.83;;;1.75;;
26562;SDS011;14217;50.986;5.826;2022-12-18T09:29:03;1.38;;;1.27;;
26562;SDS011;14217;50.986;5.826;2022-12-18T09:34:05;2.17;;;1.98;;
26562;SDS011;14217;50.986;5.826;2022-12-18T09:39:08;8.18;;;2.22;;
26562;SDS011;14217;50.986;5.826;2022-12-18T09:49:30;13.57;;;3.10;;
26562;SDS011;14217;50.986;5.826;2022-12-18T09:54:40;9.98;;;3.83;;
26562;SDS011;14217;50.986;5.826;2022-12-18T09:59:44;5.05;;;2.08;;
26562;SDS011;14217;50.986;5.826;2022-12-18T10:04:55;7.30;;;3.10;;
26562;SDS011;14217;50.986;5.826;2022-12-18T10:10:01;4.68;;;2.38;;
26562;SDS011;14217;50.986;5.826;2022-12-18T10:15:22;5.18;;;3.17;;
26562;SDS011;14217;50.986;5.826;2022-12-18T10:20:35;6.25;;;2.63;;
26562;SDS011;14217;50.986;5.826;2022-12-18T10:25:56;3.60;;;2.33;;
26562;SDS011;14217;50.986;5.826;2022-12-18T10:31:02;4.47;;;3.30;;
26562;SDS011;14217;50.986;5.826;2022-12-18T10:36:07;3.53;;;3.22;;
26562;SDS011;14217;50.986;5.826;2022-12-18T10:46:24;6.07;;;3.38;;
26562;SDS011;14217;50.986;5.826;2022-12-18T10:51:27;5.10;;;3.83;;
26562;SDS011;14217;50.986;5.826;2022-12-18T10:56:33;4.72;;;4.15;;
26562;SDS011;14217;50.986;5.826;2022-12-18T11:01:47;4.20;;;3.35;;
26562;SDS011;14217;50.986;5.826;2022-12-18T11:06:54;4.25;;;3.80;;
26562;SDS011;14217;50.986;5.826;2022-12-18T11:12:02;6.40;;;3.47;;
26562;SDS011;14217;50.986;5.826;2022-12-18T11:17:17;4.25;;;2.90;;
26562;SDS011;14217;50.986;5.826;2022-12-18T11:22:30;3.65;;;3.00;;
26562;SDS011;14217;50.986;5.826;2022-12-18T11:27:34;3.95;;;3.53;;
26562;SDS011;14217;50.986;5.826;2022-12-18T11:32:37;3.20;;;2.88;;
26562;SDS011;14217;50.986;5.826;2022-12-18T11:37:43;3.85;;;3.38;;
26562;SDS011;14217;50.986;5.826;2022-12-18T11:42:55;4.28;;;3.13;;
26562;SDS011;14217;50.986;5.826;2022-12-18T11:48:22;3.55;;;3.03;;
26562;SDS011;14217;50.986;5.826;2022-12-18T11:53:28;4.80;;;2.70;;
26562;SDS011;14217;50.986;5.826;2022-12-18T12:09:43;3.30;;;2.50;;
26562;SDS011;14217;50.986;5.826;2022-12-18T12:14:23;3.00;;;1.70;;
26562;SDS011;14217;50.986;5.826;2022-12-18T12:25:07;3.70;;;2.50;;
26562;SDS011;14217;50.986;5.826;2022-12-18T12:30:20;7.50;;;2.30;;
26562;SDS011;14217;50.986;5.826;2022-12-18T12:41:07;3.78;;;2.42;;
26562;SDS011;14217;50.986;5.826;2022-12-18T12:46:34;3.30;;;2.25;;
26562;SDS011;14217;50.986;5.826;2022-12-18T12:51:41;1.92;;;1.70;;
26562;SDS011;14217;50.986;5.826;2022-12-18T13:07:28;2.28;;;1.75;;
26562;SDS011;14217;50.986;5.826;2022-12-18T13:12:50;3.95;;;2.03;;
26562;SDS011;14217;50.986;5.826;2022-12-18T13:23:23;1.48;;;1.30;;
26562;SDS011;14217;50.986;5.826;2022-12-18T13:33:47;2.22;;;2.03;;
26562;SDS011;14217;50.986;5.826;2022-12-18T13:44:36;2.00;;;1.77;;
26562;SDS011;14217;50.986;5.826;2022-12-18T13:49:43;1.95;;;1.73;;
26562;SDS011;14217;50.986;5.826;2022-12-18T13:54:50;2.28;;;1.52;;
26562;SDS011;14217;50.986;5.826;2022-12-18T13:59:56;1.80;;;1.48;;
26562;SDS011;14217;50.986;5.826;2022-12-18T14:04:58;1.52;;;1.42;;
26562;SDS011;14217;50.986;5.826;2022-12-18T14:10:01;1.88;;;1.48;;
26562;SDS011;14217;50.986;5.826;2022-12-18T14:20:43;2.25;;;1.60;;
26562;SDS011;14217;50.986;5.826;2022-12-18T14:25:52;2.40;;;1.67;;
26562;SDS011;14217;50.986;5.826;2022-12-18T14:30:55;1.80;;;1.38;;
26562;SDS011;14217;50.986;5.826;2022-12-18T14:35:59;3.75;;;2.30;;
26562;SDS011;14217;50.986;5.826;2022-12-18T14:41:03;2.97;;;1.67;;
26562;SDS011;14217;50.986;5.826;2022-12-18T14:51:34;2.33;;;1.58;;
26562;SDS011;14217;50.986;5.826;2022-12-18T14:56:44;9.98;;;2.15;;
26562;SDS011;14217;50.986;5.826;2022-12-18T15:01:55;2.13;;;1.50;;
26562;SDS011;14217;50.986;5.826;2022-12-18T15:07:18;2.05;;;1.80;;
26562;SDS011;14217;50.986;5.826;2022-12-18T15:12:28;3.30;;;1.30;;
26562;SDS011;14217;50.986;5.826;2022-12-18T15:17:36;1.95;;;1.27;;
26562;SDS011;14217;50.986;5.826;2022-12-18T15:22:38;2.25;;;1.65;;
26562;SDS011;14217;50.986;5.826;2022-12-18T15:27:40;1.73;;;1.30;;
26562;SDS011;14217;50.986;5.826;2022-12-18T15:32:48;3.42;;;1.58;;
26562;SDS011;14217;50.986;5.826;2022-12-18T15:37:51;2.35;;;1.15;;
26562;SDS011;14217;50.986;5.826;2022-12-18T15:42:54;4.60;;;1.90;;
26562;SDS011;14217;50.986;5.826;2022-12-18T15:48:19;2.33;;;1.73;;
26562;SDS011;14217;50.986;5.826;2022-12-18T15:53:23;3.05;;;1.85;;
26562;SDS011;14217;50.986;5.826;2022-12-18T15:58:27;1.98;;;1.30;;
26562;SDS011;14217;50.986;5.826;2022-12-18T16:03:30;2.25;;;1.50;;
26562;SDS011;14217;50.986;5.826;2022-12-18T16:08:32;2.78;;;1.70;;
26562;SDS011;14217;50.986;5.826;2022-12-18T16:13:34;1.77;;;1.45;;
26562;SDS011;14217;50.986;5.826;2022-12-18T16:18:36;1.92;;;1.83;;
26562;SDS011;14217;50.986;5.826;2022-12-18T16:23:38;5.97;;;1.92;;
26562;SDS011;14217;50.986;5.826;2022-12-18T16:28:41;4.15;;;1.40;;
26562;SDS011;14217;50.986;5.826;2022-12-18T16:33:48;2.38;;;2.17;;
26562;SDS011;14217;50.986;5.826;2022-12-18T16:38:50;1.52;;;1.42;;
26562;SDS011;14217;50.986;5.826;2022-12-18T16:43:52;2.20;;;1.40;;
26562;SDS011;14217;50.986;5.826;2022-12-18T16:48:56;2.22;;;1.63;;
26562;SDS011;14217;50.986;5.826;2022-12-18T16:54:00;2.72;;;1.40;;
26562;SDS011;14217;50.986;5.826;2022-12-18T16:59:09;2.65;;;2.05;;
26562;SDS011;14217;50.986;5.826;2022-12-18T17:04:12;2.97;;;1.50;;
26562;SDS011;14217;50.986;5.826;2022-12-18T17:09:15;4.10;;;2.08;;
26562;SDS011;14217;50.986;5.826;2022-12-18T17:14:17;2.25;;;1.80;;
26562;SDS011;14217;50.986;5.826;2022-12-18T17:19:21;1.63;;;1.52;;
26562;SDS011;14217;50.986;5.826;2022-12-18T17:24:25;1.38;;;1.20;;
26562;SDS011;14217;50.986;5.826;2022-12-18T17:29:34;1.75;;;1.65;;
26562;SDS011;14217;50.986;5.826;2022-12-18T17:34:39;1.98;;;1.40;;
26562;SDS011;14217;50.986;5.826;2022-12-18T17:39:41;3.17;;;2.08;;
26562;SDS011;14217;50.986;5.826;2022-12-18T17:44:43;3.20;;;1.35;;
26562;SDS011;14217;50.986;5.826;2022-12-18T17:49:45;2.08;;;1.88;;
26562;SDS011;14217;50.986;5.826;2022-12-18T17:54:47;3.40;;;2.10;;
26562;SDS011;14217;50.986;5.826;2022-12-18T17:59:49;2.67;;;1.60;;
26562;SDS011;14217;50.986;5.826;2022-12-18T18:04:51;4.63;;;1.90;;
26562;SDS011;14217;50.986;5.826;2022-12-18T18:09:53;3.03;;;1.70;;
26562;SDS011;14217;50.986;5.826;2022-12-18T18:14:55;9.60;;;2.25;;
26562;SDS011;14217;50.986;5.826;2022-12-18T18:19:57;4.55;;;2.80;;
26562;SDS011;14217;50.986;5.826;2022-12-18T18:24:59;11.43;;;2.30;;
26562;SDS011;14217;50.986;5.826;2022-12-18T18:30:02;3.58;;;3.28;;
26562;SDS011;14217;50.986;5.826;2022-12-18T18:35:05;3.35;;;2.85;;
26562;SDS011;14217;50.986;5.826;2022-12-18T18:40:24;3.13;;;2.30;;
26562;SDS011;14217;50.986;5.826;2022-12-18T18:45:28;3.00;;;2.03;;
26562;SDS011;14217;50.986;5.826;2022-12-18T18:50:30;4.57;;;3.20;;
26562;SDS011;14217;50.986;5.826;2022-12-18T18:55:33;3.13;;;2.30;;
26562;SDS011;14217;50.986;5.826;2022-12-18T19:00:35;5.47;;;2.42;;
26562;SDS011;14217;50.986;5.826;2022-12-18T19:05:37;5.35;;;4.00;;
26562;SDS011;14217;50.986;5.826;2022-12-18T19:10:43;4.13;;;2.63;;
26562;SDS011;14217;50.986;5.826;2022-12-18T19:15:45;3.25;;;2.60;;
26562;SDS011;14217;50.986;5.826;2022-12-18T19:20:55;6.05;;;2.63;;
26562;SDS011;14217;50.986;5.826;2022-12-18T19:26:02;4.43;;;3.20;;
26562;SDS011;14217;50.986;5.826;2022-12-18T19:31:25;3.25;;;2.67;;
26562;SDS011;14217;50.986;5.826;2022-12-18T19:36:36;6.75;;;4.32;;
26562;SDS011;14217;50.986;5.826;2022-12-18T19:41:39;3.08;;;2.47;;
26562;SDS011;14217;50.986;5.826;2022-12-18T19:46:42;2.33;;;2.13;;
26562;SDS011;14217;50.986;5.826;2022-12-18T19:51:46;4.05;;;2.35;;
26562;SDS011;14217;50.986;5.826;2022-12-18T19:56:50;3.40;;;2.75;;
26562;SDS011;14217;50.986;5.826;2022-12-18T20:01:53;4.60;;;2.13;;
26562;SDS011;14217;50.986;5.826;2022-12-18T20:06:55;3.10;;;2.90;;
26562;SDS011;14217;50.986;5.826;2022-12-18T20:11:57;3.50;;;2.85;;
26562;SDS011;14217;50.986;5.826;2022-12-18T20:17:00;3.75;;;2.88;;
26562;SDS011;14217;50.986;5.826;2022-12-18T20:22:02;3.80;;;3.10;;
26562;SDS011;14217;50.986;5.826;2022-12-18T20:27:04;3.38;;;2.40;;
26562;SDS011;14217;50.986;5.826;2022-12-18T20:32:12;3.28;;;2.50;;
26562;SDS011;14217;50.986;5.826;2022-12-18T20:37:15;3.10;;;2.30;;
26562;SDS011;14217;50.986;5.826;2022-12-18T20:42:17;2.30;;;2.08;;
26562;SDS011;14217;50.986;5.826;2022-12-18T20:47:19;5.22;;;2.53;;
26562;SDS011;14217;50.986;5.826;2022-12-18T20:52:20;3.78;;;2.80;;
26562;SDS011;14217;50.986;5.826;2022-12-18T20:57:23;5.50;;;3.03;;
26562;SDS011;14217;50.986;5.826;2022-12-18T21:02:25;5.07;;;3.80;;
26562;SDS011;14217;50.986;5.826;2022-12-18T21:07:28;6.15;;;3.70;;
26562;SDS011;14217;50.986;5.826;2022-12-18T21:12:29;5.90;;;3.22;;
26562;SDS011;14217;50.986;5.826;2022-12-18T21:17:37;11.63;;;5.55;;
26562;SDS011;14217;50.986;5.826;2022-12-18T21:22:45;6.68;;;5.85;;
26562;SDS011;14217;50.986;5.826;2022-12-18T21:27:47;14.85;;;5.55;;
26562;SDS011;14217;50.986;5.826;2022-12-18T21:32:49;9.40;;;4.38;;
26562;SDS011;14217;50.986;5.826;2022-12-18T21:37:51;8.02;;;3.97;;
26562;SDS011;14217;50.986;5.826;2022-12-18T21:42:53;4.47;;;3.97;;
26562;SDS011;14217;50.986;5.826;2022-12-18T21:48:17;5.30;;;3.45;;
26562;SDS011;14217;50.986;5.826;2022-12-18T21:53:19;5.75;;;4.00;;
26562;SDS011;14217;50.986;5.826;2022-12-18T21:58:21;4.35;;;3.55;;
26562;SDS011;14217;50.986;5.826;2022-12-18T22:03:23;4.82;;;2.85;;
26562;SDS011;14217;50.986;5.826;2022-12-18T22:08:25;2.70;;;2.40;;
26562;SDS011;14217;50.986;5.826;2022-12-18T22:13:27;3.22;;;2.50;;
26562;SDS011;14217;50.986;5.826;2022-12-18T22:18:29;4.45;;;3.53;;
26562;SDS011;14217;50.986;5.826;2022-12-18T22:23:31;10.48;;;3.20;;
26562;SDS011;14217;50.986;5.826;2022-12-18T22:28:33;5.03;;;3.30;;
26562;SDS011;14217;50.986;5.826;2022-12-18T22:33:55;3.13;;;2.83;;
26562;SDS011;14217;50.986;5.826;2022-12-18T22:38:57;4.40;;;2.63;;
26562;SDS011;14217;50.986;5.826;2022-12-18T22:43:59;2.78;;;2.28;;
26562;SDS011;14217;50.986;5.826;2022-12-18T22:49:00;3.20;;;2.22;;
26562;SDS011;14217;50.986;5.826;2022-12-18T22:54:03;10.85;;;1.92;;
26562;SDS011;14217;50.986;5.826;2022-12-18T22:59:05;5.28;;;2.58;;
26562;SDS011;14217;50.986;5.826;2022-12-18T23:04:07;2.88;;;2.63;;
26562;SDS011;14217;50.986;5.826;2022-12-18T23:09:17;3.28;;;1.98;;
26562;SDS011;14217;50.986;5.826;2022-12-18T23:14:20;3.45;;;2.17;;
26562;SDS011;14217;50.986;5.826;2022-12-18T23:19:22;3.55;;;1.67;;
26562;SDS011;14217;50.986;5.826;2022-12-18T23:24:25;5.45;;;2.92;;
26562;SDS011;14217;50.986;5.826;2022-12-18T23:29:30;2.30;;;1.77;;
26562;SDS011;14217;50.986;5.826;2022-12-18T23:34:32;1.80;;;1.33;;
26562;SDS011;14217;50.986;5.826;2022-12-18T23:39:34;3.53;;;1.50;;
26562;SDS011;14217;50.986;5.826;2022-12-18T23:44:36;2.65;;;1.88;;
26562;SDS011;14217;50.986;5.826;2022-12-18T23:49:38;2.65;;;1.70;;
26562;SDS011;14217;50.986;5.826;2022-12-18T23:54:41;4.07;;;2.03;;
26562;SDS011;14217;50.986;5.826;2022-12-18T23:59:42;3.72;;;1.75;;
